메인 페이지
METAR-TAF:

METAR-TAF

공항 :

레이캬비크, 아이슬란드

위도: 64-08N, 경도: 021-54W, 고도: 54m

현재 날씨관측

예보는 31분 전, 15:00시(UTC)에 발표되었습니다.
북북서16kt
온도 -1°C
습도 69%
기압 987 hPa
시정 10km 이상
고도 3400ft 상공 구름 보통
고도 8700ft 상공 구름 많음

METAR: BIRK 111500Z 33016KT 9999 R19///// SCT034 BKN087 M01/M06 Q0987 R01/790139

시각: 15:31 (15:31 UTC)

예보

예보는 1 시간 34분 전, 13:57시(UTC)에 발표되었습니다.
예보 대상 시간: 11일 15시부터 12일 15시까지 (UTC)
22kt
시정 10km 이상
고도 2500ft 상공 구름 보통
고도 4000ft 상공 구름 많음
전환 중
11일 21시부터 11일 23시까지 (UTC)
12kt
전환 중
12일 03시부터 12일 06시까지 (UTC)
북북동22kt
고도 3500ft 상공 구름 조금

TAF: BIRK 111357Z 1115/1215 35022KT 9999 SCT025 BKN040 TX00/1118Z TNM02/1215Z BECMG 1121/1123 35012KT BECMG 1203/1206 03022KT FEW035

4,000개 이상의 공항 관측 자료 및 예보 (METAR 및 TAF 보고).

지도상에서 검색 가능한 기상관측소가 노란 점과 빨간 점으로 표시되어 있습니다.

기상관측소 명을 보려면 표시 위로 마우스를 이동하세요.

날씨 관측과 예보를 보려면 클릭하세요.

지도 변경 : 확대하려면 엑스 표시가 있는 녹색 버튼, 축소하려면 빼기 표시가 있는 녹색 버튼, 다음 페이지의 지도를 보려면 녹색 화살표를 클릭하세요.


METAR-TAF: